createdAt,value
2023-04-02T00:00:16.549Z,7.43
2023-04-02T00:02:54.786Z,7.43
2023-04-02T00:05:26.155Z,7.41
2023-04-02T00:07:58.042Z,7.35
2023-04-02T00:10:35.104Z,7.38
2023-04-02T00:13:23.786Z,7.25
2023-04-02T00:15:57.137Z,7.24
2023-04-02T00:18:25.499Z,7.29
2023-04-02T00:21:01.781Z,7.20
2023-04-02T00:23:29.036Z,7.18
2023-04-02T00:25:55.913Z,7.12
2023-04-02T00:28:24.148Z,7.13
2023-04-02T00:30:55.311Z,7.08
2023-04-02T00:33:26.837Z,6.99
2023-04-02T00:35:55.371Z,6.97
2023-04-02T00:38:34.923Z,6.88
2023-04-02T00:41:04.246Z,6.86
2023-04-02T00:43:35.879Z,6.86
2023-04-02T00:46:11.164Z,6.87
2023-04-02T00:48:46.380Z,6.85
2023-04-02T00:51:32.421Z,6.85
2023-04-02T00:54:04.260Z,6.84
2023-04-02T00:56:59.694Z,6.82
2023-04-02T00:59:48.910Z,6.76
2023-04-02T01:02:17.682Z,6.75
2023-04-02T01:05:02.265Z,6.71
2023-04-02T01:08:09.738Z,6.62
2023-04-02T01:10:55.854Z,6.68
2023-04-02T01:14:08.137Z,6.61
2023-04-02T01:16:46.483Z,6.60
2023-04-02T01:19:45.076Z,6.61
2023-04-02T01:22:25.406Z,6.48
2023-04-02T01:24:58.706Z,6.49
2023-04-02T01:27:38.071Z,6.50
2023-04-02T01:30:07.398Z,6.46
2023-04-02T01:32:35.915Z,6.43
2023-04-02T01:35:05.111Z,6.45
2023-04-02T01:37:50.111Z,6.42
2023-04-02T01:40:35.012Z,6.42
2023-04-02T01:43:26.075Z,6.45
2023-04-02T01:45:56.858Z,6.45
2023-04-02T01:48:29.980Z,6.48
2023-04-02T01:50:59.343Z,6.48
2023-04-02T01:53:30.382Z,6.45
2023-04-02T01:56:02.723Z,6.43
2023-04-02T01:58:32.847Z,6.44
2023-04-02T02:01:04.053Z,6.38
2023-04-02T02:03:33.669Z,6.30
2023-04-02T02:06:02.457Z,6.27
2023-04-02T02:08:39.819Z,6.21
2023-04-02T02:11:11.737Z,6.21
2023-04-02T02:13:40.413Z,6.12
2023-04-02T02:16:15.461Z,6.10
2023-04-02T02:18:43.348Z,6.11
2023-04-02T02:21:10.770Z,6.11
2023-04-02T02:23:37.573Z,6.10
2023-04-02T02:26:06.980Z,6.08
2023-04-02T02:28:37.792Z,6.06
2023-04-02T02:31:17.539Z,6.06
2023-04-02T02:33:51.288Z,6.03
2023-04-02T02:36:36.679Z,6.02
2023-04-02T02:39:17.803Z,6.02
2023-04-02T02:42:04.209Z,6.09
2023-04-02T02:44:38.332Z,6.15
2023-04-02T02:47:17.106Z,6.09
2023-04-02T02:49:52.837Z,6.06
2023-04-02T02:52:22.787Z,6.02
2023-04-02T02:54:53.625Z,6.06
2023-04-02T02:57:25.155Z,6.02
2023-04-02T02:59:54.639Z,5.95
2023-04-02T03:02:25.011Z,5.93
2023-04-02T03:04:55.394Z,5.92
2023-04-02T03:07:26.676Z,5.89
2023-04-02T03:10:15.348Z,5.89
2023-04-02T03:13:16.192Z,5.87
2023-04-02T03:16:11.550Z,5.84
2023-04-02T03:18:38.718Z,5.80
2023-04-02T03:21:34.524Z,5.69
2023-04-02T03:24:05.402Z,5.70
2023-04-02T03:26:46.484Z,5.68
2023-04-02T03:29:26.255Z,5.67
2023-04-02T03:32:16.608Z,5.62
2023-04-02T03:35:01.538Z,5.59
2023-04-02T03:37:35.820Z,5.56
2023-04-02T03:40:25.821Z,5.55
2023-04-02T03:42:58.344Z,5.56
2023-04-02T03:45:41.215Z,5.55
2023-04-02T03:48:26.428Z,5.52
2023-04-02T03:51:13.311Z,5.47
2023-04-02T03:53:40.590Z,5.45
2023-04-02T03:56:19.303Z,5.44
2023-04-02T03:58:53.792Z,5.44
2023-04-02T04:01:27.366Z,5.44
2023-04-02T04:03:58.072Z,5.46
2023-04-02T04:06:29.648Z,5.46
2023-04-02T04:09:07.068Z,5.44
2023-04-02T04:11:38.364Z,5.46
2023-04-02T04:14:16.012Z,5.45
2023-04-02T04:16:49.849Z,5.45
2023-04-02T04:19:22.629Z,5.47
2023-04-02T04:21:53.969Z,5.48
2023-04-02T04:24:24.593Z,5.46
2023-04-02T04:27:05.076Z,5.45
2023-04-02T04:29:50.549Z,5.44
2023-04-02T04:32:34.645Z,5.43
2023-04-02T04:35:34.621Z,5.42
2023-04-02T04:38:12.230Z,5.37
2023-04-02T04:40:52.412Z,5.34
2023-04-02T04:43:32.751Z,5.32
2023-04-02T04:46:06.120Z,5.29
2023-04-02T04:48:40.335Z,5.26
2023-04-02T04:51:31.788Z,5.26
2023-04-02T04:54:01.016Z,5.27
2023-04-02T04:56:30.922Z,5.22
2023-04-02T04:59:01.856Z,5.18
2023-04-02T05:01:39.525Z,5.18
2023-04-02T05:04:16.456Z,5.15
2023-04-02T05:06:57.846Z,5.19
2023-04-02T05:09:31.731Z,5.09
2023-04-02T05:12:31.538Z,5.05
2023-04-02T05:15:05.097Z,5.02
2023-04-02T05:17:38.091Z,4.99
2023-04-02T05:20:32.835Z,5.03
2023-04-02T05:23:29.982Z,5.01
2023-04-02T05:26:12.341Z,5.03
2023-04-02T05:28:49.977Z,5.00
2023-04-02T05:31:26.023Z,5.04
2023-04-02T05:33:56.674Z,5.03
2023-04-02T05:36:29.614Z,4.99
2023-04-02T05:38:58.548Z,5.00
2023-04-02T05:41:43.208Z,4.97
2023-04-02T05:44:12.953Z,4.96
2023-04-02T05:46:48.523Z,5.00
2023-04-02T05:49:28.760Z,4.92
2023-04-02T05:52:00.902Z,4.88
2023-04-02T05:54:47.919Z,4.87
2023-04-02T05:57:35.821Z,4.91
2023-04-02T06:00:17.484Z,4.86
2023-04-02T06:02:54.924Z,4.78
2023-04-02T06:05:32.220Z,4.78
2023-04-02T06:08:06.498Z,4.80
2023-04-02T06:10:47.632Z,4.83
2023-04-02T06:13:18.624Z,4.77
2023-04-02T06:15:47.730Z,4.78
2023-04-02T06:18:19.923Z,4.73
2023-04-02T06:20:47.622Z,4.78
2023-04-02T06:23:36.125Z,4.74
2023-04-02T06:26:21.221Z,4.73
2023-04-02T06:28:53.727Z,4.74
2023-04-02T06:31:25.925Z,4.77
2023-04-02T06:33:55.130Z,4.79
2023-04-02T06:36:23.894Z,4.78
2023-04-02T06:38:54.271Z,4.82
2023-04-02T06:41:24.440Z,4.76
2023-04-02T06:43:56.607Z,4.76
2023-04-02T06:46:31.276Z,4.76
2023-04-02T06:49:13.812Z,4.77
2023-04-02T06:51:42.211Z,4.79
2023-04-02T06:54:18.070Z,4.80
2023-04-02T06:56:53.811Z,4.80
2023-04-02T06:59:21.061Z,4.88
2023-04-02T07:02:18.128Z,4.79
2023-04-02T07:04:48.861Z,4.76
2023-04-02T07:07:18.900Z,4.84
2023-04-02T07:09:46.230Z,4.79
2023-04-02T07:12:13.696Z,4.82
2023-04-02T07:14:40.900Z,4.87
2023-04-02T07:17:16.959Z,4.85
2023-04-02T07:19:49.116Z,4.88
2023-04-02T07:22:20.094Z,4.89
2023-04-02T07:24:47.137Z,4.89
2023-04-02T07:27:14.895Z,4.82
2023-04-02T07:29:44.753Z,4.79
2023-04-02T07:32:13.077Z,4.82
2023-04-02T07:34:40.724Z,4.86
2023-04-02T07:37:09.709Z,4.89
2023-04-02T07:39:38.347Z,4.87
2023-04-02T07:42:08.018Z,4.82
2023-04-02T07:44:35.762Z,4.91
2023-04-02T07:47:04.264Z,4.89
2023-04-02T07:49:30.983Z,4.90
2023-04-02T07:51:58.423Z,4.90
2023-04-02T07:54:27.143Z,4.95
2023-04-02T07:56:54.614Z,4.97
2023-04-02T07:59:21.571Z,5.02
2023-04-02T08:01:48.494Z,5.06
2023-04-02T08:04:22.603Z,5.06
2023-04-02T08:06:50.434Z,5.08
2023-04-02T08:09:17.655Z,5.06
2023-04-02T08:11:46.866Z,5.06
2023-04-02T08:14:13.935Z,5.06
2023-04-02T08:16:47.097Z,5.07
2023-04-02T08:19:14.812Z,5.01
2023-04-02T08:21:42.029Z,5.01
2023-04-02T08:24:09.084Z,5.06
2023-04-02T08:26:37.216Z,5.10
2023-04-02T08:29:04.553Z,5.17
2023-04-02T08:31:36.516Z,5.24
2023-04-02T08:34:03.881Z,5.24
2023-04-02T08:36:35.898Z,5.29
2023-04-02T08:39:04.624Z,5.36
2023-04-02T08:41:38.751Z,5.58
2023-04-02T08:44:12.174Z,5.50
2023-04-02T08:46:47.871Z,5.51
2023-04-02T08:49:18.497Z,5.67
2023-04-02T08:51:47.356Z,5.70
2023-04-02T08:54:30.846Z,5.80
2023-04-02T08:57:19.567Z,5.78
2023-04-02T08:59:48.011Z,5.88
2023-04-02T09:02:35.772Z,5.91
2023-04-02T09:05:06.113Z,5.98
2023-04-02T09:07:33.609Z,6.08
2023-04-02T09:10:01.888Z,6.13
2023-04-02T09:12:33.458Z,6.08
2023-04-02T09:15:34.162Z,6.07
2023-04-02T09:18:11.860Z,6.10
2023-04-02T09:20:39.363Z,6.12
2023-04-02T09:23:16.036Z,6.17
2023-04-02T09:25:54.281Z,6.34
2023-04-02T09:28:26.515Z,6.33
2023-04-02T09:31:09.478Z,6.28
2023-04-02T09:33:48.888Z,6.27
2023-04-02T09:36:37.313Z,6.34
2023-04-02T09:39:17.163Z,6.34
2023-04-02T09:41:50.278Z,6.38
2023-04-02T09:44:30.398Z,6.47
2023-04-02T09:47:01.230Z,6.51
2023-04-02T09:49:34.166Z,6.53
2023-04-02T09:52:11.378Z,6.64
2023-04-02T09:54:43.095Z,6.76
2023-04-02T09:57:25.098Z,6.81
2023-04-02T10:00:29.732Z,6.76
2023-04-02T10:03:23.105Z,6.79
2023-04-02T10:06:14.230Z,6.87
2023-04-02T10:08:43.956Z,7.04
2023-04-02T10:11:17.725Z,7.11
2023-04-02T10:14:06.192Z,7.13
2023-04-02T10:16:42.504Z,7.10
2023-04-02T10:19:26.470Z,7.09
2023-04-02T10:21:55.667Z,7.15
2023-04-02T10:24:27.451Z,7.25
2023-04-02T10:27:29.662Z,7.21
2023-04-02T10:30:39.070Z,7.24
2023-04-02T10:33:21.534Z,7.27
2023-04-02T10:36:09.648Z,7.31
2023-04-02T10:39:13.947Z,7.26
2023-04-02T10:41:57.661Z,7.21
2023-04-02T10:44:37.485Z,7.22
2023-04-02T10:47:13.911Z,7.18
2023-04-02T10:50:12.950Z,7.28
2023-04-02T10:52:49.724Z,7.26
2023-04-02T10:55:22.827Z,7.21
2023-04-02T10:57:56.159Z,7.19
2023-04-02T11:00:37.241Z,7.15
2023-04-02T11:03:09.449Z,7.16
2023-04-02T11:05:56.974Z,7.15
2023-04-02T11:08:44.230Z,7.17
2023-04-02T11:11:15.778Z,7.17
2023-04-02T11:13:48.212Z,7.19
2023-04-02T11:16:15.859Z,7.15
2023-04-02T11:18:44.811Z,7.13
2023-04-02T11:21:30.398Z,7.15
2023-04-02T11:24:01.097Z,7.16
2023-04-02T11:26:29.087Z,7.17
2023-04-02T11:29:16.383Z,7.18
2023-04-02T11:31:45.551Z,7.12
2023-04-02T11:34:41.280Z,7.17
2023-04-02T11:37:29.074Z,7.17
2023-04-02T11:39:59.474Z,7.13
2023-04-02T11:42:32.850Z,7.15
2023-04-02T11:45:21.248Z,7.16
2023-04-02T11:48:00.725Z,7.19
2023-04-02T11:50:34.876Z,7.25
2023-04-02T11:53:10.854Z,7.29
2023-04-02T11:55:42.533Z,7.22
2023-04-02T11:58:27.916Z,7.34
2023-04-02T12:01:18.008Z,7.32
2023-04-02T12:03:50.530Z,7.37
2023-04-02T12:06:39.922Z,7.47
2023-04-02T12:09:20.880Z,7.47
2023-04-02T12:11:49.898Z,7.48
2023-04-02T12:14:36.287Z,7.55
2023-04-02T12:17:24.801Z,7.59
2023-04-02T12:19:54.933Z,7.63
2023-04-02T12:22:28.713Z,7.74
2023-04-02T12:25:01.715Z,7.71
2023-04-02T12:27:29.897Z,7.74
2023-04-02T12:30:20.419Z,7.73
2023-04-02T12:32:48.103Z,7.74
2023-04-02T12:35:33.160Z,7.73
2023-04-02T12:38:01.215Z,7.74
2023-04-02T12:40:28.514Z,7.76
2023-04-02T12:42:56.021Z,7.80
2023-04-02T12:45:29.772Z,7.90
2023-04-02T12:47:57.891Z,7.90
2023-04-02T12:50:24.858Z,7.98
2023-04-02T12:52:55.129Z,8.02
2023-04-02T12:55:27.292Z,8.03
2023-04-02T12:57:59.344Z,7.98
2023-04-02T13:00:29.824Z,8.05
2023-04-02T13:03:02.008Z,8.13
2023-04-02T13:05:39.481Z,8.21
2023-04-02T13:08:15.193Z,8.27
2023-04-02T13:10:43.297Z,8.20
2023-04-02T13:13:20.164Z,8.15
2023-04-02T13:16:00.844Z,8.19
2023-04-02T13:18:32.043Z,8.22
2023-04-02T13:21:03.034Z,8.25
2023-04-02T13:23:36.934Z,8.35
2023-04-02T13:26:24.582Z,8.50
2023-04-02T13:29:16.954Z,8.68
2023-04-02T13:31:43.898Z,8.73
2023-04-02T13:34:11.734Z,8.65
2023-04-02T13:36:39.340Z,8.68
2023-04-02T13:39:06.967Z,8.63
2023-04-02T13:41:45.347Z,8.65
2023-04-02T13:44:25.603Z,8.70
2023-04-02T13:46:54.075Z,8.65
2023-04-02T13:49:22.744Z,8.58
2023-04-02T13:51:54.950Z,8.52
2023-04-02T13:54:32.038Z,8.55
2023-04-02T13:56:59.900Z,8.62
2023-04-02T13:59:27.766Z,8.72
2023-04-02T14:01:59.546Z,8.81
2023-04-02T14:04:32.096Z,8.91
2023-04-02T14:07:03.052Z,9.07
2023-04-02T14:09:55.535Z,9.45
2023-04-02T14:12:54.711Z,9.66
2023-04-02T14:15:40.537Z,9.69
2023-04-02T14:18:26.742Z,9.52
2023-04-02T14:21:05.746Z,10.25
2023-04-02T14:23:51.778Z,11.65
2023-04-02T14:26:44.722Z,12.02
2023-04-02T14:29:17.648Z,12.64
2023-04-02T14:31:59.753Z,13.77
2023-04-02T14:34:41.330Z,14.66
2023-04-02T14:37:20.958Z,15.24
2023-04-02T14:40:06.204Z,15.87
2023-04-02T14:42:44.217Z,15.23
2023-04-02T14:45:32.753Z,15.02
2023-04-02T14:48:13.674Z,15.59
2023-04-02T14:50:42.722Z,15.85
2023-04-02T14:53:23.986Z,16.20
2023-04-02T14:55:52.821Z,16.53
2023-04-02T14:58:28.867Z,16.47
2023-04-02T15:01:06.557Z,16.64
2023-04-02T15:03:43.259Z,16.80
2023-04-02T15:06:24.024Z,17.11
2023-04-02T15:09:08.391Z,16.85
2023-04-02T15:11:41.599Z,16.87
2023-04-02T15:14:24.387Z,16.21
2023-04-02T15:16:51.685Z,15.35
2023-04-02T15:19:20.362Z,14.39
2023-04-02T15:22:07.724Z,14.52
2023-04-02T15:25:12.216Z,15.23
2023-04-02T15:28:12.466Z,15.61
2023-04-02T15:30:44.191Z,15.67
2023-04-02T15:34:02.160Z,14.72
2023-04-02T15:36:46.686Z,13.57
2023-04-02T15:39:43.639Z,12.74
2023-04-02T15:42:20.230Z,12.51
2023-04-02T15:45:26.501Z,13.20
2023-04-02T15:48:21.974Z,13.82
2023-04-02T15:51:15.970Z,13.75
2023-04-02T15:53:52.406Z,13.33
2023-04-02T15:56:23.046Z,12.84
2023-04-02T15:59:28.271Z,12.98
2023-04-02T16:02:27.540Z,12.74
2023-04-02T16:05:12.589Z,12.66
2023-04-02T16:07:48.422Z,12.56
2023-04-02T16:10:40.889Z,12.12
2023-04-02T16:13:13.656Z,12.09
2023-04-02T16:15:57.988Z,12.73
2023-04-02T16:18:49.684Z,12.91
2023-04-02T16:21:23.718Z,13.03
2023-04-02T16:23:54.163Z,12.98
2023-04-02T16:26:43.691Z,12.56
2023-04-02T16:29:44.017Z,12.30
2023-04-02T16:32:49.712Z,12.21
2023-04-02T16:35:44.712Z,12.20
2023-04-02T16:38:13.205Z,12.17
2023-04-02T16:41:07.548Z,12.24
2023-04-02T16:43:42.857Z,12.17
2023-04-02T16:46:12.429Z,12.12
2023-04-02T16:48:58.246Z,11.75
2023-04-02T16:52:16.101Z,11.61
2023-04-02T16:54:50.812Z,11.45
2023-04-02T16:57:25.193Z,11.22
2023-04-02T17:00:03.105Z,10.82
2023-04-02T17:03:02.382Z,10.55
2023-04-02T17:06:04.862Z,10.22
2023-04-02T17:08:54.406Z,9.93
2023-04-02T17:11:30.941Z,9.73
2023-04-02T17:14:19.052Z,9.62
2023-04-02T17:16:51.842Z,9.52
2023-04-02T17:19:20.856Z,9.41
2023-04-02T17:21:52.816Z,9.33
2023-04-02T17:24:29.476Z,9.27
2023-04-02T17:27:22.062Z,9.11
2023-04-02T17:29:55.615Z,8.96
2023-04-02T17:32:25.650Z,8.80
2023-04-02T17:34:53.007Z,8.60
2023-04-02T17:37:35.840Z,8.40
2023-04-02T17:40:23.452Z,8.26
2023-04-02T17:43:05.944Z,8.11
2023-04-02T17:45:52.243Z,7.99
2023-04-02T17:48:45.566Z,7.86
2023-04-02T17:51:33.228Z,7.81
2023-04-02T17:54:16.054Z,7.68
2023-04-02T17:57:00.343Z,7.61
2023-04-02T17:59:42.934Z,7.52
2023-04-02T18:02:44.024Z,7.47
2023-04-02T18:05:31.524Z,7.38
2023-04-02T18:08:28.549Z,7.34
2023-04-02T18:11:36.160Z,7.27
2023-04-02T18:14:23.380Z,7.23
2023-04-02T18:17:08.984Z,7.16
2023-04-02T18:20:02.778Z,7.11
2023-04-02T18:22:52.391Z,7.04
2023-04-02T18:25:39.576Z,6.96
2023-04-02T18:28:24.237Z,6.97
2023-04-02T18:31:16.899Z,6.86
2023-04-02T18:33:59.465Z,6.82
2023-04-02T18:36:38.236Z,6.79
2023-04-02T18:39:20.680Z,6.71
2023-04-02T18:42:24.271Z,6.65
2023-04-02T18:45:12.377Z,6.61
2023-04-02T18:48:05.552Z,6.56
2023-04-02T18:50:40.141Z,6.45
2023-04-02T18:53:21.641Z,6.40
2023-04-02T18:55:55.410Z,6.38
2023-04-02T18:58:33.533Z,6.32
2023-04-02T19:01:01.589Z,6.28
2023-04-02T19:03:41.908Z,6.26
2023-04-02T19:06:42.597Z,6.18
2023-04-02T19:09:21.483Z,6.14
2023-04-02T19:11:49.988Z,6.12
2023-04-02T19:14:19.485Z,6.07
2023-04-02T19:17:24.762Z,6.03
2023-04-02T19:20:13.285Z,5.98
2023-04-02T19:23:03.458Z,5.91
2023-04-02T19:25:50.751Z,5.82
2023-04-02T19:28:30.260Z,5.74
2023-04-02T19:31:25.960Z,5.67
2023-04-02T19:34:00.127Z,5.62
2023-04-02T19:36:57.251Z,5.55
2023-04-02T19:39:41.243Z,5.53
2023-04-02T19:42:24.409Z,5.46
2023-04-02T19:44:52.988Z,5.41
2023-04-02T19:47:21.756Z,5.38
2023-04-02T19:49:48.862Z,5.34
2023-04-02T19:52:16.474Z,5.30
2023-04-02T19:54:44.079Z,5.26
2023-04-02T19:57:16.027Z,5.21
2023-04-02T19:59:43.352Z,5.19
2023-04-02T20:02:11.236Z,5.15
2023-04-02T20:04:38.708Z,5.14
2023-04-02T20:07:05.737Z,5.11
2023-04-02T20:09:32.536Z,5.07
2023-04-02T20:11:59.836Z,5.02
2023-04-02T20:14:26.916Z,4.98
2023-04-02T20:16:56.714Z,4.94
2023-04-02T20:19:24.153Z,4.91
2023-04-02T20:21:51.754Z,4.87
2023-04-02T20:24:19.158Z,4.79
2023-04-02T20:26:46.476Z,4.72
2023-04-02T20:29:14.112Z,4.68
2023-04-02T20:31:41.564Z,4.64
2023-04-02T20:34:09.927Z,4.54
2023-04-02T20:36:38.078Z,4.52
2023-04-02T20:39:07.956Z,4.51
2023-04-02T20:41:35.456Z,4.47
2023-04-02T20:44:02.973Z,4.44
2023-04-02T20:46:31.228Z,4.34
2023-04-02T20:48:58.630Z,4.32
2023-04-02T20:51:26.562Z,4.31
2023-04-02T20:53:54.398Z,4.24
2023-04-02T20:56:23.525Z,4.21
2023-04-02T20:58:51.239Z,4.16
2023-04-02T21:01:27.798Z,4.14
2023-04-02T21:03:57.645Z,4.15
2023-04-02T21:06:28.435Z,4.11
2023-04-02T21:08:55.834Z,4.09
2023-04-02T21:11:23.266Z,4.06
2023-04-02T21:13:50.905Z,4.02
2023-04-02T21:16:31.522Z,3.96
2023-04-02T21:19:01.428Z,3.96
2023-04-02T21:21:29.398Z,3.89
2023-04-02T21:23:59.383Z,3.84
2023-04-02T21:26:27.872Z,3.84
2023-04-02T21:28:55.683Z,3.82
2023-04-02T21:31:26.095Z,3.83
2023-04-02T21:33:55.715Z,3.82
2023-04-02T21:36:28.628Z,3.83
2023-04-02T21:39:05.167Z,3.82
2023-04-02T21:41:35.307Z,3.78
2023-04-02T21:44:04.927Z,3.76
2023-04-02T21:46:36.004Z,3.77
2023-04-02T21:49:03.247Z,3.73
2023-04-02T21:51:32.151Z,3.70
2023-04-02T21:54:00.816Z,3.65
2023-04-02T21:56:31.034Z,3.58
2023-04-02T21:58:59.099Z,3.62
2023-04-02T22:01:28.888Z,3.64
2023-04-02T22:03:57.198Z,3.65
2023-04-02T22:06:26.879Z,3.57
2023-04-02T22:08:55.404Z,3.58
2023-04-02T22:11:25.005Z,3.59
2023-04-02T22:13:53.284Z,3.58
2023-04-02T22:16:22.872Z,3.58
2023-04-02T22:18:51.476Z,3.58
2023-04-02T22:21:23.762Z,3.56
2023-04-02T22:23:51.182Z,3.55
2023-04-02T22:26:20.931Z,3.57
2023-04-02T22:28:48.058Z,3.45
2023-04-02T22:31:22.968Z,3.43
2023-04-02T22:33:51.685Z,3.43
2023-04-02T22:36:19.761Z,3.31
2023-04-02T22:38:46.720Z,3.31
2023-04-02T22:41:16.992Z,3.31
2023-04-02T22:43:44.972Z,3.29
2023-04-02T22:46:14.563Z,3.24
2023-04-02T22:48:42.624Z,3.19
2023-04-02T22:51:11.558Z,3.18
2023-04-02T22:53:40.006Z,3.15
2023-04-02T22:56:13.694Z,3.16
2023-04-02T22:58:41.476Z,3.14
2023-04-02T23:01:13.761Z,3.07
2023-04-02T23:03:40.597Z,3.05
2023-04-02T23:06:10.637Z,3.04
2023-04-02T23:08:38.429Z,3.00
2023-04-02T23:11:08.625Z,2.99
2023-04-02T23:13:36.221Z,2.99
2023-04-02T23:16:06.566Z,2.95
2023-04-02T23:18:35.237Z,2.94
2023-04-02T23:21:02.432Z,2.93
2023-04-02T23:23:30.832Z,2.92
2023-04-02T23:26:09.681Z,2.93
2023-04-02T23:28:38.507Z,2.87
2023-04-02T23:31:07.563Z,2.84
2023-04-02T23:33:35.571Z,2.82
2023-04-02T23:36:18.341Z,2.80
2023-04-02T23:38:45.346Z,2.79
2023-04-02T23:41:16.328Z,2.70
2023-04-02T23:43:44.073Z,2.64
2023-04-02T23:46:11.132Z,2.63
2023-04-02T23:48:39.107Z,2.65
2023-04-02T23:51:06.933Z,2.64
2023-04-02T23:53:34.866Z,2.60
2023-04-02T23:56:01.646Z,2.54
2023-04-02T23:58:28.964Z,2.48
